createdAt,value
2019-03-15T00:08:03.089Z,3.20
2019-03-15T00:18:07.962Z,5.60
2019-03-15T00:28:12.861Z,7.07
2019-03-15T00:38:17.859Z,9.15
2019-03-15T00:48:22.854Z,7.63
2019-03-15T00:58:27.842Z,8.90
2019-03-15T01:08:32.733Z,4.93
2019-03-15T01:18:38.725Z,4.30
2019-03-15T01:28:43.958Z,4.93
2019-03-15T01:38:48.834Z,5.97
2019-03-15T01:48:53.729Z,5.37
2019-03-15T01:58:58.629Z,5.90
2019-03-15T02:09:04.743Z,5.60
2019-03-15T02:19:10.327Z,4.70
2019-03-15T02:29:15.436Z,6.57
2019-03-15T02:39:20.351Z,5.33
2019-03-15T02:49:25.253Z,5.53
2019-03-15T02:59:30.222Z,6.57
2019-03-15T03:09:35.116Z,5.90
2019-03-15T03:19:40.011Z,6.13
2019-03-15T03:29:44.908Z,5.20
2019-03-15T03:39:49.887Z,5.93
2019-03-15T03:49:54.782Z,4.70
2019-03-15T03:59:59.665Z,5.10
2019-03-15T04:10:08.310Z,5.13
2019-03-15T04:20:13.645Z,5.37
2019-03-15T04:30:18.547Z,5.40
2019-03-15T04:40:23.430Z,8.70
2019-03-15T04:50:28.429Z,6.10
2019-03-15T05:00:33.321Z,6.40
2019-03-15T05:10:38.333Z,8.00
2019-03-15T05:20:43.410Z,8.40
2019-03-15T05:30:48.302Z,8.93
2019-03-15T05:40:53.933Z,12.83
2019-03-15T05:50:59.818Z,11.63
2019-03-15T06:01:05.223Z,10.90
2019-03-15T06:11:10.218Z,11.93
2019-03-15T06:21:15.120Z,9.47
2019-03-15T06:31:20.207Z,10.67
2019-03-15T06:41:25.196Z,10.37
2019-03-15T06:51:30.306Z,11.27
2019-03-15T07:01:35.176Z,9.20
2019-03-15T07:11:41.413Z,12.20
2019-03-15T07:21:46.992Z,12.03
2019-03-15T07:31:52.129Z,7.62
2019-03-15T07:41:56.975Z,8.27
2019-03-15T07:52:04.012Z,9.93
2019-03-15T08:02:08.631Z,7.13
2019-03-15T08:12:14.544Z,11.57
2019-03-15T08:22:19.436Z,10.10
2019-03-15T08:32:24.328Z,9.33
2019-03-15T08:42:29.206Z,5.77
2019-03-15T08:52:34.123Z,7.13
2019-03-15T09:02:38.990Z,5.80
2019-03-15T09:12:43.940Z,13.80
2019-03-15T09:22:48.871Z,7.13
2019-03-15T09:32:53.888Z,9.03
2019-03-15T09:43:00.018Z,10.57
2019-03-15T09:53:06.148Z,11.10
2019-03-15T10:03:21.539Z,8.53
2019-03-15T10:13:18.055Z,8.80
2019-03-15T10:23:23.032Z,7.28
2019-03-15T10:33:29.472Z,13.87
2019-03-15T10:43:34.361Z,12.37
2019-03-15T10:53:39.249Z,17.63
2019-03-15T11:03:44.250Z,22.40
2019-03-15T11:13:50.774Z,21.07
2019-03-15T11:23:55.659Z,26.23
2019-03-15T11:34:00.566Z,15.17
2019-03-15T11:44:05.520Z,10.37
2019-03-15T11:54:10.469Z,4.33
2019-03-15T12:04:15.441Z,2.80
2019-03-15T12:14:20.441Z,3.83
2019-03-15T12:24:25.531Z,2.97
2019-03-15T12:34:30.627Z,4.33
2019-03-15T12:44:35.509Z,6.50
2019-03-15T12:54:40.926Z,5.73
2019-03-15T13:04:46.167Z,4.47
2019-03-15T13:14:52.135Z,6.33
2019-03-15T13:24:57.132Z,8.57
2019-03-15T13:35:02.368Z,5.27
2019-03-15T13:45:12.737Z,10.23
2019-03-15T13:55:17.797Z,4.47
2019-03-15T14:18:39.654Z,8.60
2019-03-15T14:28:44.806Z,6.80
2019-03-15T14:38:49.860Z,37.53
2019-03-15T14:48:55.339Z,14.87
2019-03-15T14:59:00.612Z,48.63
2019-03-15T15:09:07.347Z,8.83
2019-03-15T15:19:12.685Z,13.80
2019-03-15T15:29:17.860Z,14.33
2019-03-15T15:39:23.031Z,13.90
2019-03-15T15:49:28.383Z,11.83
2019-03-15T15:59:33.472Z,33.60
2019-03-15T16:09:38.645Z,33.10
2019-03-15T16:19:43.959Z,16.43
2019-03-15T16:29:49.047Z,12.40
2019-03-15T16:39:56.421Z,19.13
2019-03-15T16:50:01.100Z,32.90
2019-03-15T17:00:10.099Z,30.10
2019-03-15T17:10:20.371Z,42.23
2019-03-15T17:20:25.548Z,37.77
2019-03-15T17:30:30.894Z,20.37
2019-03-15T17:40:36.170Z,17.87
2019-03-15T17:50:41.281Z,16.97
2019-03-15T18:00:52.396Z,20.83
2019-03-15T18:10:57.440Z,20.80
2019-03-15T18:21:02.724Z,18.03
2019-03-15T18:31:08.139Z,15.13
2019-03-15T18:41:13.223Z,26.40
2019-03-15T18:51:18.433Z,18.63
2019-03-15T19:01:23.794Z,17.07
2019-03-15T19:11:32.093Z,14.93
2019-03-15T19:21:37.319Z,13.57
2019-03-15T19:31:42.499Z,19.27
2019-03-15T19:41:47.783Z,19.73
2019-03-15T19:51:53.172Z,14.20
2019-03-15T20:01:58.544Z,11.23
2019-03-15T20:12:03.855Z,8.90
2019-03-15T20:22:08.996Z,10.00
2019-03-15T20:32:15.175Z,15.53
2019-03-15T20:42:20.439Z,15.93
2019-03-15T20:52:25.637Z,14.73
2019-03-15T21:02:30.686Z,15.93
2019-03-15T21:12:35.990Z,11.73
2019-03-15T21:22:41.123Z,19.47
2019-03-15T21:32:46.490Z,13.93
2019-03-15T21:42:51.716Z,13.57
2019-03-15T21:52:58.357Z,16.50
2019-03-15T22:03:03.209Z,15.38
2019-03-15T22:13:08.115Z,14.40
2019-03-15T22:23:13.108Z,13.62
2019-03-15T22:33:18.096Z,8.83
2019-03-15T22:43:22.972Z,5.60
2019-03-15T22:53:27.882Z,3.73
2019-03-15T23:03:32.777Z,3.47
2019-03-15T23:13:37.663Z,5.23
2019-03-15T23:23:42.537Z,8.87
2019-03-15T23:33:47.435Z,8.07
2019-03-15T23:43:52.325Z,6.25
2019-03-15T23:53:57.316Z,6.87
